createdAt,value
2022-09-28T00:00:39.046Z,1.13
2022-09-28T00:03:06.975Z,0.80
2022-09-28T00:05:35.149Z,0.80
2022-09-28T00:08:02.883Z,1.20
2022-09-28T00:10:30.626Z,0.80
2022-09-28T00:13:00.688Z,1.07
2022-09-28T00:15:29.212Z,1.40
2022-09-28T00:17:56.814Z,0.97
2022-09-28T00:20:24.409Z,1.30
2022-09-28T00:22:51.966Z,1.20
2022-09-28T00:25:21.976Z,1.13
2022-09-28T00:27:51.227Z,0.90
2022-09-28T00:30:20.325Z,0.93
2022-09-28T00:32:47.903Z,1.23
2022-09-28T00:35:15.765Z,1.20
2022-09-28T00:37:43.427Z,1.20
2022-09-28T00:40:11.242Z,1.20
2022-09-28T00:42:42.794Z,0.93
2022-09-28T00:45:11.161Z,1.30
2022-09-28T00:47:49.804Z,1.10
2022-09-28T00:50:23.894Z,0.93
2022-09-28T00:52:55.951Z,1.07
2022-09-28T00:55:31.889Z,1.10
2022-09-28T00:58:04.719Z,0.93
2022-09-28T01:00:32.611Z,1.70
2022-09-28T01:03:01.925Z,1.40
2022-09-28T01:05:29.806Z,1.60
2022-09-28T01:07:58.542Z,1.80
2022-09-28T01:10:26.209Z,1.53
2022-09-28T01:12:54.019Z,1.83
2022-09-28T01:15:23.204Z,2.23
2022-09-28T01:18:08.483Z,2.33
2022-09-28T01:20:55.799Z,2.53
2022-09-28T01:23:53.249Z,2.00
2022-09-28T01:26:36.227Z,2.40
2022-09-28T01:29:12.262Z,1.80
2022-09-28T01:31:46.401Z,1.70
2022-09-28T01:34:19.770Z,1.67
2022-09-28T01:36:50.938Z,1.30
2022-09-28T01:39:23.356Z,1.27
2022-09-28T01:41:56.637Z,1.20
2022-09-28T01:44:28.879Z,1.23
2022-09-28T01:47:03.629Z,1.87
2022-09-28T01:49:38.315Z,1.20
2022-09-28T01:52:13.602Z,1.13
2022-09-28T01:54:45.695Z,1.00
2022-09-28T01:57:18.538Z,1.40
2022-09-28T01:59:54.301Z,1.00
2022-09-28T02:02:29.602Z,1.53
2022-09-28T02:05:01.193Z,1.67
2022-09-28T02:07:33.192Z,1.73
2022-09-28T02:10:04.187Z,2.00
2022-09-28T02:12:36.969Z,1.83
2022-09-28T02:15:13.126Z,1.80
2022-09-28T02:17:41.607Z,1.40
2022-09-28T02:20:10.217Z,1.70
2022-09-28T02:22:43.083Z,2.40
2022-09-28T02:25:14.951Z,2.17
2022-09-28T02:27:51.726Z,2.70
2022-09-28T02:30:19.779Z,2.37
2022-09-28T02:32:50.758Z,2.50
2022-09-28T02:35:19.832Z,2.23
2022-09-28T02:37:48.094Z,2.20
2022-09-28T02:40:16.987Z,1.90
2022-09-28T02:42:57.660Z,1.77
2022-09-28T02:45:45.142Z,1.80
2022-09-28T02:48:42.682Z,1.50
2022-09-28T02:51:22.181Z,2.27
2022-09-28T02:54:21.825Z,2.30
2022-09-28T02:57:03.223Z,2.00
2022-09-28T02:59:47.172Z,1.83
2022-09-28T03:02:24.885Z,1.80
2022-09-28T03:05:06.739Z,2.27
2022-09-28T03:07:38.487Z,2.60
2022-09-28T03:10:12.387Z,2.33
2022-09-28T03:12:40.628Z,2.50
2022-09-28T03:15:12.259Z,2.53
2022-09-28T03:17:40.582Z,2.13
2022-09-28T03:20:11.041Z,2.17
2022-09-28T03:22:38.992Z,1.97
2022-09-28T03:25:07.961Z,1.77
2022-09-28T03:27:38.529Z,2.67
2022-09-28T03:30:08.285Z,1.93
2022-09-28T03:32:38.665Z,2.00
2022-09-28T03:35:08.561Z,2.37
2022-09-28T03:37:38.879Z,2.13
2022-09-28T03:40:07.838Z,2.33
2022-09-28T03:42:37.088Z,2.50
2022-09-28T03:45:06.211Z,4.50
2022-09-28T03:47:34.178Z,4.80
2022-09-28T03:50:03.221Z,3.93
2022-09-28T03:52:30.977Z,3.43
2022-09-28T03:54:58.880Z,3.50
2022-09-28T03:57:28.099Z,2.83
2022-09-28T03:59:55.843Z,4.37
2022-09-28T04:02:23.614Z,2.27
2022-09-28T04:04:51.445Z,2.33
2022-09-28T04:07:20.443Z,2.43
2022-09-28T04:09:48.151Z,2.50
2022-09-28T04:12:15.862Z,3.27
2022-09-28T04:14:43.581Z,3.70
2022-09-28T04:17:11.325Z,2.77
2022-09-28T04:20:04.553Z,3.80
2022-09-28T04:22:43.258Z,3.60
2022-09-28T04:25:11.435Z,2.97
2022-09-28T04:27:56.589Z,3.33
2022-09-28T04:30:24.779Z,3.07
2022-09-28T04:32:53.361Z,3.73
2022-09-28T04:35:21.207Z,3.23
2022-09-28T04:37:50.264Z,2.50
2022-09-28T04:40:17.985Z,2.60
2022-09-28T04:42:45.708Z,3.30
2022-09-28T04:45:14.947Z,2.70
2022-09-28T04:47:47.471Z,2.80
2022-09-28T04:50:38.093Z,2.40
2022-09-28T04:53:20.329Z,2.40
2022-09-28T04:55:56.701Z,2.50
2022-09-28T04:58:24.457Z,2.57
2022-09-28T05:00:52.859Z,2.67
2022-09-28T05:03:43.545Z,2.30
2022-09-28T05:06:28.618Z,2.43
2022-09-28T05:09:03.738Z,2.33
2022-09-28T05:11:31.421Z,3.13
2022-09-28T05:13:59.079Z,2.60
2022-09-28T05:16:27.809Z,2.60
2022-09-28T05:19:18.393Z,2.97
2022-09-28T05:21:46.905Z,3.20
2022-09-28T05:24:16.272Z,3.33
2022-09-28T05:26:48.045Z,2.70
2022-09-28T05:29:15.839Z,2.80
2022-09-28T05:32:02.475Z,2.50
2022-09-28T05:34:40.073Z,3.03
2022-09-28T05:37:07.921Z,2.27
2022-09-28T05:39:36.913Z,2.40
2022-09-28T05:42:04.717Z,2.67
2022-09-28T05:44:32.395Z,2.73
2022-09-28T05:47:00.153Z,2.60
2022-09-28T05:49:31.713Z,2.17
2022-09-28T05:52:01.071Z,2.37
2022-09-28T05:54:28.833Z,2.60
2022-09-28T05:56:57.857Z,3.50
2022-09-28T05:59:25.567Z,3.63
2022-09-28T06:01:53.217Z,2.33
2022-09-28T06:04:20.985Z,3.10
2022-09-28T06:06:49.822Z,2.83
2022-09-28T06:09:17.661Z,2.87
2022-09-28T06:12:15.907Z,2.50
2022-09-28T06:14:46.644Z,2.70
2022-09-28T06:17:14.546Z,3.00
2022-09-28T06:19:45.381Z,3.00
2022-09-28T06:22:26.757Z,3.07
2022-09-28T06:25:06.726Z,2.83
2022-09-28T06:27:36.004Z,3.10
2022-09-28T06:30:03.803Z,3.40
2022-09-28T06:32:31.556Z,2.77
2022-09-28T06:34:59.220Z,3.30
2022-09-28T06:37:28.921Z,2.93
2022-09-28T06:39:57.044Z,2.97
2022-09-28T06:42:25.266Z,3.10
2022-09-28T06:45:28.380Z,2.80
2022-09-28T06:48:21.569Z,3.10
2022-09-28T06:50:50.963Z,4.43
2022-09-28T06:53:39.588Z,3.47
2022-09-28T06:56:33.159Z,3.10
2022-09-28T06:59:01.105Z,2.93
2022-09-28T07:01:30.714Z,2.70
2022-09-28T07:04:06.366Z,4.00
2022-09-28T07:06:52.780Z,4.50
2022-09-28T07:09:43.706Z,3.77
2022-09-28T07:12:21.807Z,3.90
2022-09-28T07:14:57.323Z,4.40
2022-09-28T07:17:29.016Z,4.47
2022-09-28T07:20:05.223Z,4.30
2022-09-28T07:22:43.044Z,3.50
2022-09-28T07:25:14.286Z,3.63
2022-09-28T07:28:09.531Z,3.10
2022-09-28T07:31:15.520Z,3.30
2022-09-28T07:34:08.016Z,3.63
2022-09-28T07:36:58.934Z,2.40
2022-09-28T07:39:26.813Z,2.30
2022-09-28T07:41:56.702Z,2.27
2022-09-28T07:44:28.548Z,2.00
2022-09-28T07:46:56.726Z,2.20
2022-09-28T07:49:33.022Z,2.13
2022-09-28T07:52:15.795Z,2.00
2022-09-28T07:55:06.582Z,1.50
2022-09-28T07:57:56.183Z,1.97
2022-09-28T08:00:48.388Z,2.13
2022-09-28T08:03:17.433Z,1.87
2022-09-28T08:05:47.481Z,1.50
2022-09-28T08:08:15.849Z,1.90
2022-09-28T08:10:47.172Z,2.10
2022-09-28T08:13:38.890Z,2.03
2022-09-28T08:16:25.146Z,1.60
2022-09-28T08:19:10.357Z,1.93
2022-09-28T08:21:47.280Z,2.03
2022-09-28T08:24:17.673Z,2.00
2022-09-28T08:26:47.154Z,1.30
2022-09-28T08:29:17.180Z,1.77
2022-09-28T08:31:50.569Z,1.80
2022-09-28T08:34:44.325Z,1.40
2022-09-28T08:37:26.279Z,1.60
2022-09-28T08:40:19.511Z,1.43
2022-09-28T08:43:16.638Z,2.77
2022-09-28T08:46:25.179Z,2.20
2022-09-28T08:49:26.790Z,1.80
2022-09-28T08:52:14.839Z,1.80
2022-09-28T08:55:14.709Z,2.00
2022-09-28T08:57:47.738Z,2.20
2022-09-28T09:00:22.422Z,1.53
2022-09-28T09:02:50.616Z,1.67
2022-09-28T09:05:39.149Z,1.47
2022-09-28T09:08:25.234Z,1.40
2022-09-28T09:11:01.661Z,1.20
2022-09-28T09:13:53.791Z,1.53
2022-09-28T09:16:33.290Z,1.60
2022-09-28T09:19:16.715Z,1.40
2022-09-28T09:22:16.764Z,1.10
2022-09-28T09:24:51.251Z,0.73
2022-09-28T09:27:41.343Z,0.80
2022-09-28T09:30:12.959Z,1.47
2022-09-28T09:33:00.143Z,1.00
2022-09-28T09:35:46.021Z,1.10
2022-09-28T09:38:38.484Z,0.70
2022-09-28T09:41:43.052Z,0.80
2022-09-28T09:45:01.102Z,0.77
2022-09-28T09:47:46.360Z,0.67
2022-09-28T09:50:30.115Z,0.50
2022-09-28T09:53:03.718Z,0.60
2022-09-28T09:55:35.221Z,0.53
2022-09-28T09:58:28.041Z,0.93
2022-09-28T10:01:09.252Z,0.50
2022-09-28T10:04:20.292Z,0.60
2022-09-28T10:06:51.587Z,0.40
2022-09-28T10:09:24.941Z,0.50
2022-09-28T10:11:53.986Z,0.73
2022-09-28T10:14:23.555Z,0.60
2022-09-28T10:17:04.663Z,0.70
2022-09-28T10:19:51.170Z,0.60
2022-09-28T10:22:48.970Z,0.70
2022-09-28T10:25:19.588Z,1.33
2022-09-28T10:27:52.680Z,0.90
2022-09-28T10:30:23.456Z,1.00
2022-09-28T10:32:59.014Z,0.97
2022-09-28T10:35:32.320Z,1.40
2022-09-28T10:38:08.065Z,1.40
2022-09-28T10:40:48.501Z,1.87
2022-09-28T10:43:26.073Z,1.40
2022-09-28T10:46:02.716Z,2.87
2022-09-28T10:48:46.822Z,1.20
2022-09-28T10:51:14.635Z,1.40
2022-09-28T10:53:58.070Z,1.30
2022-09-28T10:56:42.172Z,1.53
2022-09-28T10:59:38.922Z,1.23
2022-09-28T11:02:23.151Z,1.30
2022-09-28T11:04:57.803Z,1.30
2022-09-28T11:07:28.465Z,1.40
2022-09-28T11:09:56.720Z,1.40
2022-09-28T11:12:27.133Z,1.40
2022-09-28T11:14:58.485Z,1.53
2022-09-28T11:21:55.680Z,1.50
2022-09-28T11:24:31.629Z,1.50
2022-09-28T11:27:03.371Z,1.10
2022-09-28T11:29:36.642Z,1.23
2022-09-28T11:32:24.289Z,2.70
2022-09-28T11:35:19.671Z,1.67
2022-09-28T11:38:12.981Z,1.20
2022-09-28T11:41:26.324Z,1.30
2022-09-28T11:44:14.283Z,1.27
2022-09-28T11:46:53.071Z,1.30
2022-09-28T11:49:30.987Z,1.53
2022-09-28T11:52:05.111Z,1.80
2022-09-28T11:54:41.571Z,1.73
2022-09-28T11:57:16.627Z,1.73
2022-09-28T11:59:57.054Z,1.20
2022-09-28T12:02:30.743Z,1.20
2022-09-28T12:05:20.955Z,1.00
2022-09-28T12:07:55.179Z,1.40
2022-09-28T12:10:48.644Z,1.40
2022-09-28T12:13:22.764Z,1.20
2022-09-28T12:16:20.099Z,1.10
2022-09-28T12:18:47.930Z,1.20
2022-09-28T12:21:32.095Z,1.00
2022-09-28T12:24:07.680Z,1.27
2022-09-28T12:26:43.460Z,0.90
2022-09-28T12:29:15.413Z,1.50
2022-09-28T12:31:56.614Z,0.90
2022-09-28T12:34:24.411Z,0.67
2022-09-28T12:37:06.483Z,0.40
2022-09-28T12:39:58.426Z,0.50
2022-09-28T12:42:44.166Z,0.73
2022-09-28T12:45:38.709Z,0.40
2022-09-28T12:48:33.490Z,0.30
2022-09-28T12:51:11.823Z,0.40
2022-09-28T12:53:53.712Z,0.80
2022-09-28T12:56:30.496Z,0.40
2022-09-28T12:59:13.387Z,0.53
2022-09-28T13:01:58.166Z,0.23
2022-09-28T13:04:45.605Z,0.20
2022-09-28T13:07:21.195Z,0.37
2022-09-28T13:09:59.049Z,0.13
2022-09-28T13:12:36.928Z,0.40
2022-09-28T13:15:32.987Z,0.63
2022-09-28T13:18:09.169Z,1.20
2022-09-28T13:20:49.139Z,0.80
2022-09-28T13:23:21.464Z,0.60
2022-09-28T13:25:55.681Z,1.03
2022-09-28T13:28:27.206Z,0.57
2022-09-28T13:33:37.019Z,0.67
2022-09-28T13:36:05.811Z,0.70
2022-09-28T13:38:55.255Z,0.77
2022-09-28T13:41:29.020Z,0.77
2022-09-28T13:44:17.073Z,0.50
2022-09-28T13:46:57.233Z,0.60
2022-09-28T13:49:32.624Z,1.17
2022-09-28T13:52:53.843Z,0.60
2022-09-28T13:56:19.880Z,0.70
2022-09-28T13:58:56.411Z,0.70
2022-09-28T14:01:29.143Z,0.50
2022-09-28T14:04:13.491Z,1.20
2022-09-28T14:06:51.420Z,0.37
2022-09-28T14:09:27.809Z,0.50
2022-09-28T14:11:57.953Z,0.50
2022-09-28T14:14:57.609Z,0.50
2022-09-28T14:18:00.194Z,0.53
2022-09-28T14:20:32.513Z,0.40
2022-09-28T14:23:33.065Z,0.43
2022-09-28T14:26:18.302Z,0.50
2022-09-28T14:28:59.722Z,0.40
2022-09-28T14:31:30.483Z,0.30
2022-09-28T14:34:01.263Z,0.47
2022-09-28T14:37:00.418Z,0.70
2022-09-28T14:39:49.119Z,0.77
2022-09-28T14:42:20.153Z,1.17
2022-09-28T14:45:19.903Z,0.60
2022-09-28T14:48:06.729Z,1.20
2022-09-28T14:50:34.712Z,1.20
2022-09-28T14:53:06.994Z,0.77
2022-09-28T14:55:43.838Z,0.87
2022-09-28T14:58:19.061Z,0.60
2022-09-28T15:00:49.120Z,0.67
2022-09-28T15:03:17.934Z,0.90
2022-09-28T15:05:49.379Z,0.53
2022-09-28T15:08:21.392Z,0.40
2022-09-28T15:10:51.501Z,0.50
2022-09-28T15:13:22.317Z,0.83
2022-09-28T15:15:54.143Z,0.33
2022-09-28T15:18:47.616Z,0.60
2022-09-28T15:21:16.371Z,0.50
2022-09-28T15:23:46.916Z,0.50
2022-09-28T15:26:27.523Z,0.30
2022-09-28T15:28:56.387Z,0.33
2022-09-28T15:31:26.282Z,0.80
2022-09-28T15:34:11.733Z,0.50
2022-09-28T15:36:41.850Z,0.50
2022-09-28T15:39:16.214Z,0.50
2022-09-28T15:41:45.828Z,0.50
2022-09-28T15:44:33.906Z,0.60
2022-09-28T15:47:09.345Z,0.50
2022-09-28T15:49:42.133Z,0.60
2022-09-28T15:52:25.470Z,0.50
2022-09-28T15:54:55.288Z,0.80
2022-09-28T15:57:33.867Z,0.80
2022-09-28T16:00:02.130Z,0.77
2022-09-28T16:02:39.727Z,0.70
2022-09-28T16:05:35.675Z,0.57
2022-09-28T16:08:04.995Z,0.83
2022-09-28T16:10:35.818Z,0.60
2022-09-28T16:13:20.079Z,1.20
2022-09-28T16:15:57.969Z,0.80
2022-09-28T16:18:27.699Z,0.73
2022-09-28T16:20:58.842Z,0.60
2022-09-28T16:23:31.061Z,0.77
2022-09-28T16:26:02.692Z,0.80
2022-09-28T16:28:51.974Z,0.90
2022-09-28T16:31:28.231Z,0.90
2022-09-28T16:33:58.203Z,1.00
2022-09-28T16:36:29.774Z,1.20
2022-09-28T16:38:57.728Z,0.87
2022-09-28T16:41:29.204Z,0.90
2022-09-28T16:44:01.030Z,1.10
2022-09-28T16:46:34.249Z,1.33
2022-09-28T16:49:03.149Z,1.17
2022-09-28T16:51:30.786Z,1.80
2022-09-28T16:54:19.201Z,0.80
2022-09-28T16:56:48.179Z,0.83
2022-09-28T16:59:15.967Z,1.03
2022-09-28T17:01:43.898Z,0.93
2022-09-28T17:04:12.139Z,0.80
2022-09-28T17:06:39.838Z,0.70
2022-09-28T17:09:07.996Z,0.70
2022-09-28T17:11:36.112Z,0.70
2022-09-28T17:14:05.143Z,0.70
2022-09-28T17:17:02.651Z,0.60
2022-09-28T17:19:24.116Z,0.50
2022-09-28T17:21:52.492Z,0.80
2022-09-28T17:24:20.944Z,1.20
2022-09-28T17:26:51.197Z,2.03
2022-09-28T17:29:20.643Z,2.53
2022-09-28T17:31:48.770Z,3.00
2022-09-28T17:34:17.039Z,3.00
2022-09-28T17:36:45.774Z,2.43
2022-09-28T17:39:15.388Z,1.80
2022-09-28T17:41:43.073Z,1.57
2022-09-28T17:44:11.214Z,1.60
2022-09-28T17:46:45.936Z,1.50
2022-09-28T17:49:14.261Z,1.50
2022-09-28T17:51:42.061Z,1.53
2022-09-28T17:54:09.939Z,1.30
2022-09-28T17:56:37.924Z,1.30
2022-09-28T17:59:07.899Z,1.10
2022-09-28T18:01:40.675Z,1.40
2022-09-28T18:04:15.919Z,1.10
2022-09-28T18:06:55.672Z,0.83
2022-09-28T18:09:25.358Z,1.20
2022-09-28T18:12:00.511Z,1.00
2022-09-28T18:14:28.571Z,1.00
2022-09-28T18:16:57.826Z,1.20
2022-09-28T18:19:28.651Z,0.77
2022-09-28T18:21:59.698Z,0.73
2022-09-28T18:24:27.545Z,1.10
2022-09-28T18:26:55.383Z,0.90
2022-09-28T18:29:23.230Z,0.77
2022-09-28T18:31:51.019Z,1.60
2022-09-28T18:34:20.432Z,1.00
2022-09-28T18:36:48.382Z,1.07
2022-09-28T18:39:16.365Z,1.10
2022-09-28T18:41:44.206Z,0.77
2022-09-28T18:44:11.944Z,0.90
2022-09-28T18:46:40.959Z,0.80
2022-09-28T18:49:08.741Z,1.00
2022-09-28T18:51:37.995Z,1.30
2022-09-28T18:54:07.131Z,1.10
2022-09-28T18:56:37.242Z,0.80
2022-09-28T18:59:09.923Z,0.80
2022-09-28T19:01:41.588Z,0.70
2022-09-28T19:04:11.161Z,0.70
2022-09-28T19:06:41.745Z,0.50
2022-09-28T19:09:09.902Z,0.60
2022-09-28T19:11:37.810Z,0.70
2022-09-28T19:14:05.699Z,0.60
2022-09-28T19:16:34.722Z,0.80
2022-09-28T19:19:03.059Z,0.50
2022-09-28T19:21:31.498Z,0.47
2022-09-28T19:24:04.042Z,0.70
2022-09-28T19:26:32.919Z,0.60
2022-09-28T19:29:02.098Z,0.53
2022-09-28T19:31:30.981Z,0.70
2022-09-28T19:33:58.907Z,0.60
2022-09-28T19:36:28.596Z,0.80
2022-09-28T19:38:57.796Z,0.87
2022-09-28T19:41:51.070Z,0.70
2022-09-28T19:44:24.746Z,0.60
2022-09-28T19:46:54.674Z,1.00
2022-09-28T19:49:23.977Z,1.20
2022-09-28T19:52:13.883Z,1.10
2022-09-28T19:54:43.931Z,1.07
2022-09-28T19:57:14.444Z,1.40
2022-09-28T19:59:42.722Z,1.80
2022-09-28T20:02:12.380Z,1.83
2022-09-28T20:04:40.175Z,1.87
2022-09-28T20:07:07.990Z,2.17
2022-09-28T20:09:35.889Z,2.43
2022-09-28T20:12:03.685Z,1.80
2022-09-28T20:14:38.048Z,1.80
2022-09-28T20:17:08.594Z,2.00
2022-09-28T20:19:36.526Z,2.00
2022-09-28T20:22:04.725Z,1.80
2022-09-28T20:24:33.120Z,1.77
2022-09-28T20:27:01.290Z,1.70
2022-09-28T20:29:31.667Z,1.73
2022-09-28T20:32:01.168Z,1.73
2022-09-28T20:34:28.940Z,1.63
2022-09-28T20:36:56.703Z,1.50
2022-09-28T20:39:24.465Z,1.60
2022-09-28T20:41:52.245Z,1.93
2022-09-28T20:44:20.289Z,1.63
2022-09-28T20:46:50.928Z,1.40
2022-09-28T20:49:20.049Z,1.37
2022-09-28T20:51:47.950Z,1.30
2022-09-28T20:54:15.734Z,1.23
2022-09-28T20:56:43.561Z,1.57
2022-09-28T20:59:13.065Z,1.50
2022-09-28T21:01:41.699Z,1.43
2022-09-28T21:04:10.990Z,1.60
2022-09-28T21:06:41.787Z,1.30
2022-09-28T21:09:10.955Z,1.40
2022-09-28T21:11:39.793Z,1.10
2022-09-28T21:14:09.635Z,1.60
2022-09-28T21:16:37.800Z,1.93
2022-09-28T21:19:06.233Z,2.37
2022-09-28T21:21:34.011Z,2.43
2022-09-28T21:24:03.307Z,2.20
2022-09-28T21:26:32.732Z,2.00
2022-09-28T21:29:02.343Z,1.90
2022-09-28T21:31:32.582Z,1.60
2022-09-28T21:34:00.915Z,1.50
2022-09-28T21:36:28.698Z,1.63
2022-09-28T21:38:56.495Z,1.70
2022-09-28T21:41:26.248Z,1.67
2022-09-28T21:43:54.037Z,1.60
2022-09-28T21:46:22.022Z,2.00
2022-09-28T21:48:52.567Z,2.67
2022-09-28T21:51:20.960Z,2.93
2022-09-28T21:53:49.601Z,2.50
2022-09-28T21:56:17.672Z,2.60
2022-09-28T21:58:49.073Z,2.40
2022-09-28T22:01:19.503Z,1.90
2022-09-28T22:03:48.915Z,1.80
2022-09-28T22:06:18.844Z,1.70
2022-09-28T22:08:46.936Z,1.70
2022-09-28T22:11:16.753Z,1.50
2022-09-28T22:13:49.107Z,1.73
2022-09-28T22:16:19.281Z,1.37
2022-09-28T22:18:48.189Z,1.60
2022-09-28T22:21:17.763Z,1.87
2022-09-28T22:23:45.719Z,1.43
2022-09-28T22:26:17.920Z,1.93
2022-09-28T22:28:49.441Z,1.80
2022-09-28T22:31:19.353Z,1.60
2022-09-28T22:33:47.208Z,1.83
2022-09-28T22:36:16.677Z,1.47
2022-09-28T22:38:44.893Z,1.43
2022-09-28T22:41:15.824Z,1.70
2022-09-28T22:43:44.429Z,1.83
2022-09-28T22:46:15.279Z,1.60
2022-09-28T22:48:47.706Z,1.87
2022-09-28T22:51:16.098Z,1.50
2022-09-28T22:53:44.129Z,1.70
2022-09-28T22:56:17.539Z,1.70
2022-09-28T22:58:46.445Z,1.40
2022-09-28T23:01:17.800Z,1.70
2022-09-28T23:03:46.329Z,1.63
2022-09-28T23:06:17.052Z,1.60
2022-09-28T23:08:47.268Z,1.80
2022-09-28T23:11:15.593Z,1.97
2022-09-28T23:13:43.599Z,1.90
2022-09-28T23:16:14.757Z,2.03
2022-09-28T23:18:44.367Z,2.50
2022-09-28T23:21:15.301Z,2.40
2022-09-28T23:23:43.283Z,2.40
2022-09-28T23:26:14.573Z,2.77
2022-09-28T23:28:42.381Z,3.80
2022-09-28T23:31:12.125Z,5.23
2022-09-28T23:33:40.158Z,4.93
2022-09-28T23:36:10.226Z,4.57
2022-09-28T23:38:38.440Z,4.77
2022-09-28T23:41:06.484Z,4.40
2022-09-28T23:43:34.766Z,5.07
2022-09-28T23:46:02.587Z,6.87
2022-09-28T23:48:30.397Z,7.47
2022-09-28T23:50:58.432Z,6.30
2022-09-28T23:53:27.756Z,6.30
2022-09-28T23:55:55.888Z,4.20
2022-09-28T23:58:24.051Z,4.13
